sensor_id;sensor_type;location;lat;lon;timestamp;P1;durP1;ratioP1;P2;durP2;ratioP2
20399;SDS011;10359;53.596;22.520;2022-07-04T00:00:36;6.37;;;5.77;;
20399;SDS011;10359;53.596;22.520;2022-07-04T00:03:09;6.37;;;5.77;;
20399;SDS011;10359;53.596;22.520;2022-07-04T00:05:40;7.00;;;6.40;;
20399;SDS011;10359;53.596;22.520;2022-07-04T00:08:11;6.67;;;6.17;;
20399;SDS011;10359;53.596;22.520;2022-07-04T00:10:48;7.07;;;6.50;;
20399;SDS011;10359;53.596;22.520;2022-07-04T00:13:17;9.10;;;6.80;;
20399;SDS011;10359;53.596;22.520;2022-07-04T00:15:52;7.63;;;6.90;;
20399;SDS011;10359;53.596;22.520;2022-07-04T00:18:31;8.33;;;6.73;;
20399;SDS011;10359;53.596;22.520;2022-07-04T00:21:00;7.30;;;6.70;;
20399;SDS011;10359;53.596;22.520;2022-07-04T00:23:31;10.33;;;7.83;;
20399;SDS011;10359;53.596;22.520;2022-07-04T00:26:00;6.67;;;6.07;;
20399;SDS011;10359;53.596;22.520;2022-07-04T00:28:29;7.27;;;6.63;;
20399;SDS011;10359;53.596;22.520;2022-07-04T00:31:00;6.80;;;6.30;;
20399;SDS011;10359;53.596;22.520;2022-07-04T00:33:31;7.40;;;6.73;;
20399;SDS011;10359;53.596;22.520;2022-07-04T00:36:02;7.70;;;7.00;;
20399;SDS011;10359;53.596;22.520;2022-07-04T00:38:33;8.33;;;6.97;;
20399;SDS011;10359;53.596;22.520;2022-07-04T00:41:04;7.20;;;6.50;;
20399;SDS011;10359;53.596;22.520;2022-07-04T00:43:34;8.40;;;7.60;;
20399;SDS011;10359;53.596;22.520;2022-07-04T00:46:23;8.67;;;6.10;;
20399;SDS011;10359;53.596;22.520;2022-07-04T00:48:56;6.93;;;6.23;;
20399;SDS011;10359;53.596;22.520;2022-07-04T00:51:26;6.83;;;6.30;;
20399;SDS011;10359;53.596;22.520;2022-07-04T00:53:57;9.37;;;8.57;;
20399;SDS011;10359;53.596;22.520;2022-07-04T00:56:27;7.23;;;6.70;;
20399;SDS011;10359;53.596;22.520;2022-07-04T00:58:59;8.00;;;7.30;;
20399;SDS011;10359;53.596;22.520;2022-07-04T01:01:30;8.07;;;7.33;;
20399;SDS011;10359;53.596;22.520;2022-07-04T01:04:01;8.47;;;7.67;;
20399;SDS011;10359;53.596;22.520;2022-07-04T01:06:32;7.90;;;7.13;;
20399;SDS011;10359;53.596;22.520;2022-07-04T01:09:09;7.87;;;7.17;;
20399;SDS011;10359;53.596;22.520;2022-07-04T01:11:38;7.90;;;7.20;;
20399;SDS011;10359;53.596;22.520;2022-07-04T01:14:09;8.27;;;7.53;;
20399;SDS011;10359;53.596;22.520;2022-07-04T01:16:38;8.17;;;7.40;;
20399;SDS011;10359;53.596;22.520;2022-07-04T01:19:10;8.73;;;7.93;;
20399;SDS011;10359;53.596;22.520;2022-07-04T01:21:42;8.20;;;7.40;;
20399;SDS011;10359;53.596;22.520;2022-07-04T01:24:11;7.57;;;6.87;;
20399;SDS011;10359;53.596;22.520;2022-07-04T01:26:41;7.70;;;7.07;;
20399;SDS011;10359;53.596;22.520;2022-07-04T01:29:11;8.40;;;7.43;;
20399;SDS011;10359;53.596;22.520;2022-07-04T01:31:42;8.20;;;7.50;;
20399;SDS011;10359;53.596;22.520;2022-07-04T01:34:12;7.20;;;6.60;;
20399;SDS011;10359;53.596;22.520;2022-07-04T01:36:43;9.13;;;7.87;;
20399;SDS011;10359;53.596;22.520;2022-07-04T01:39:13;7.77;;;7.17;;
20399;SDS011;10359;53.596;22.520;2022-07-04T01:41:44;7.83;;;7.13;;
20399;SDS011;10359;53.596;22.520;2022-07-04T01:44:13;9.67;;;8.63;;
20399;SDS011;10359;53.596;22.520;2022-07-04T01:46:43;8.30;;;7.50;;
20399;SDS011;10359;53.596;22.520;2022-07-04T01:49:13;8.07;;;7.37;;
20399;SDS011;10359;53.596;22.520;2022-07-04T01:51:45;8.47;;;7.67;;
20399;SDS011;10359;53.596;22.520;2022-07-04T01:54:16;8.83;;;8.00;;
20399;SDS011;10359;53.596;22.520;2022-07-04T01:56:45;10.60;;;9.60;;
20399;SDS011;10359;53.596;22.520;2022-07-04T01:59:15;10.47;;;9.27;;
20399;SDS011;10359;53.596;22.520;2022-07-04T02:01:46;8.70;;;7.90;;
20399;SDS011;10359;53.596;22.520;2022-07-04T02:04:14;9.30;;;8.60;;
20399;SDS011;10359;53.596;22.520;2022-07-04T02:06:47;9.20;;;8.30;;
20399;SDS011;10359;53.596;22.520;2022-07-04T02:09:17;8.97;;;8.27;;
20399;SDS011;10359;53.596;22.520;2022-07-04T02:11:46;10.03;;;9.13;;
20399;SDS011;10359;53.596;22.520;2022-07-04T02:14:33;8.43;;;7.83;;
20399;SDS011;10359;53.596;22.520;2022-07-04T02:17:02;10.60;;;9.53;;
20399;SDS011;10359;53.596;22.520;2022-07-04T02:19:31;10.10;;;9.07;;
20399;SDS011;10359;53.596;22.520;2022-07-04T02:22:02;8.30;;;7.60;;
20399;SDS011;10359;53.596;22.520;2022-07-04T02:24:31;9.77;;;8.83;;
20399;SDS011;10359;53.596;22.520;2022-07-04T02:27:00;9.40;;;8.50;;
20399;SDS011;10359;53.596;22.520;2022-07-04T02:29:29;8.97;;;8.20;;
20399;SDS011;10359;53.596;22.520;2022-07-04T02:31:58;7.70;;;7.00;;
20399;SDS011;10359;53.596;22.520;2022-07-04T02:34:28;9.07;;;8.37;;
20399;SDS011;10359;53.596;22.520;2022-07-04T02:36:57;8.53;;;7.83;;
20399;SDS011;10359;53.596;22.520;2022-07-04T02:39:27;8.83;;;7.93;;
20399;SDS011;10359;53.596;22.520;2022-07-04T02:41:56;7.83;;;7.03;;
20399;SDS011;10359;53.596;22.520;2022-07-04T02:44:25;7.80;;;7.20;;
20399;SDS011;10359;53.596;22.520;2022-07-04T02:46:54;8.03;;;7.30;;
20399;SDS011;10359;53.596;22.520;2022-07-04T02:49:23;7.77;;;7.07;;
20399;SDS011;10359;53.596;22.520;2022-07-04T02:51:52;8.97;;;8.07;;
20399;SDS011;10359;53.596;22.520;2022-07-04T02:54:21;7.77;;;7.07;;
20399;SDS011;10359;53.596;22.520;2022-07-04T02:56:51;7.53;;;6.83;;
20399;SDS011;10359;53.596;22.520;2022-07-04T02:59:20;7.53;;;6.83;;
20399;SDS011;10359;53.596;22.520;2022-07-04T03:01:49;7.10;;;6.50;;
20399;SDS011;10359;53.596;22.520;2022-07-04T03:04:18;7.80;;;7.20;;
20399;SDS011;10359;53.596;22.520;2022-07-04T03:06:47;7.83;;;7.23;;
20399;SDS011;10359;53.596;22.520;2022-07-04T03:09:16;7.40;;;6.73;;
20399;SDS011;10359;53.596;22.520;2022-07-04T03:11:45;7.40;;;6.80;;
20399;SDS011;10359;53.596;22.520;2022-07-04T03:14:16;7.37;;;6.67;;
20399;SDS011;10359;53.596;22.520;2022-07-04T03:16:45;7.90;;;7.10;;
20399;SDS011;10359;53.596;22.520;2022-07-04T03:19:14;8.30;;;7.60;;
20399;SDS011;10359;53.596;22.520;2022-07-04T03:21:44;7.50;;;6.90;;
20399;SDS011;10359;53.596;22.520;2022-07-04T03:24:13;7.00;;;6.43;;
20399;SDS011;10359;53.596;22.520;2022-07-04T03:26:42;6.80;;;6.20;;
20399;SDS011;10359;53.596;22.520;2022-07-04T03:29:11;8.00;;;7.20;;
20399;SDS011;10359;53.596;22.520;2022-07-04T03:31:41;7.03;;;6.43;;
20399;SDS011;10359;53.596;22.520;2022-07-04T03:34:10;6.23;;;5.73;;
20399;SDS011;10359;53.596;22.520;2022-07-04T03:36:39;6.40;;;5.90;;
20399;SDS011;10359;53.596;22.520;2022-07-04T03:39:08;6.50;;;6.00;;
20399;SDS011;10359;53.596;22.520;2022-07-04T03:41:37;8.03;;;7.27;;
20399;SDS011;10359;53.596;22.520;2022-07-04T03:44:06;7.93;;;7.07;;
20399;SDS011;10359;53.596;22.520;2022-07-04T03:46:35;7.13;;;6.63;;
20399;SDS011;10359;53.596;22.520;2022-07-04T03:49:05;9.27;;;8.40;;
20399;SDS011;10359;53.596;22.520;2022-07-04T03:51:34;8.37;;;7.60;;
20399;SDS011;10359;53.596;22.520;2022-07-04T03:54:03;9.87;;;8.97;;
20399;SDS011;10359;53.596;22.520;2022-07-04T03:56:32;10.47;;;9.70;;
20399;SDS011;10359;53.596;22.520;2022-07-04T03:59:01;10.13;;;9.23;;
20399;SDS011;10359;53.596;22.520;2022-07-04T04:01:30;9.33;;;8.53;;
20399;SDS011;10359;53.596;22.520;2022-07-04T04:03:59;7.10;;;6.50;;
20399;SDS011;10359;53.596;22.520;2022-07-04T04:06:47;7.40;;;6.80;;
20399;SDS011;10359;53.596;22.520;2022-07-04T04:09:16;6.30;;;5.80;;
20399;SDS011;10359;53.596;22.520;2022-07-04T04:11:46;7.10;;;6.60;;
20399;SDS011;10359;53.596;22.520;2022-07-04T04:14:15;11.57;;;10.50;;
20399;SDS011;10359;53.596;22.520;2022-07-04T04:16:44;6.40;;;5.90;;
20399;SDS011;10359;53.596;22.520;2022-07-04T04:19:13;7.63;;;6.90;;
20399;SDS011;10359;53.596;22.520;2022-07-04T04:21:42;6.70;;;6.20;;
20399;SDS011;10359;53.596;22.520;2022-07-04T04:24:12;11.40;;;10.33;;
20399;SDS011;10359;53.596;22.520;2022-07-04T04:26:41;7.43;;;6.83;;
20399;SDS011;10359;53.596;22.520;2022-07-04T04:29:10;11.77;;;10.67;;
20399;SDS011;10359;53.596;22.520;2022-07-04T04:31:39;10.97;;;10.07;;
20399;SDS011;10359;53.596;22.520;2022-07-04T04:34:08;10.63;;;9.63;;
20399;SDS011;10359;53.596;22.520;2022-07-04T04:36:37;11.43;;;10.43;;
20399;SDS011;10359;53.596;22.520;2022-07-04T04:39:05;9.77;;;8.97;;
20399;SDS011;10359;53.596;22.520;2022-07-04T04:41:36;10.60;;;9.60;;
20399;SDS011;10359;53.596;22.520;2022-07-04T04:44:05;9.67;;;8.77;;
20399;SDS011;10359;53.596;22.520;2022-07-04T04:46:34;6.83;;;6.23;;
20399;SDS011;10359;53.596;22.520;2022-07-04T04:49:03;7.83;;;7.23;;
20399;SDS011;10359;53.596;22.520;2022-07-04T04:51:32;7.40;;;6.70;;
20399;SDS011;10359;53.596;22.520;2022-07-04T04:54:01;7.50;;;6.87;;
20399;SDS011;10359;53.596;22.520;2022-07-04T04:56:30;6.77;;;6.17;;
20399;SDS011;10359;53.596;22.520;2022-07-04T04:59:00;8.47;;;6.73;;
20399;SDS011;10359;53.596;22.520;2022-07-04T05:01:29;8.83;;;6.70;;
20399;SDS011;10359;53.596;22.520;2022-07-04T05:04:07;6.60;;;6.00;;
20399;SDS011;10359;53.596;22.520;2022-07-04T05:06:37;6.43;;;5.67;;
20399;SDS011;10359;53.596;22.520;2022-07-04T05:09:06;6.77;;;6.03;;
20399;SDS011;10359;53.596;22.520;2022-07-04T05:11:35;7.13;;;6.43;;
20399;SDS011;10359;53.596;22.520;2022-07-04T05:14:05;6.70;;;5.57;;
20399;SDS011;10359;53.596;22.520;2022-07-04T05:16:34;6.43;;;5.93;;
20399;SDS011;10359;53.596;22.520;2022-07-04T05:19:04;6.23;;;5.63;;
20399;SDS011;10359;53.596;22.520;2022-07-04T05:21:33;6.40;;;5.80;;
20399;SDS011;10359;53.596;22.520;2022-07-04T05:24:02;8.33;;;5.83;;
20399;SDS011;10359;53.596;22.520;2022-07-04T05:26:31;6.03;;;5.53;;
20399;SDS011;10359;53.596;22.520;2022-07-04T05:29:00;5.83;;;5.30;;
20399;SDS011;10359;53.596;22.520;2022-07-04T05:31:31;6.33;;;5.67;;
20399;SDS011;10359;53.596;22.520;2022-07-04T05:34:00;6.13;;;5.60;;
20399;SDS011;10359;53.596;22.520;2022-07-04T05:36:29;5.30;;;4.90;;
20399;SDS011;10359;53.596;22.520;2022-07-04T05:38:58;7.07;;;5.10;;
20399;SDS011;10359;53.596;22.520;2022-07-04T05:41:33;5.30;;;4.80;;
20399;SDS011;10359;53.596;22.520;2022-07-04T05:44:39;5.67;;;5.00;;
20399;SDS011;10359;53.596;22.520;2022-07-04T05:47:09;5.10;;;4.60;;
20399;SDS011;10359;53.596;22.520;2022-07-04T05:49:38;6.40;;;4.63;;
20399;SDS011;10359;53.596;22.520;2022-07-04T05:52:07;4.63;;;4.23;;
20399;SDS011;10359;53.596;22.520;2022-07-04T05:54:36;5.37;;;4.50;;
20399;SDS011;10359;53.596;22.520;2022-07-04T05:57:05;5.33;;;4.77;;
20399;SDS011;10359;53.596;22.520;2022-07-04T05:59:34;5.53;;;5.03;;
20399;SDS011;10359;53.596;22.520;2022-07-04T06:02:03;4.97;;;4.57;;
20399;SDS011;10359;53.596;22.520;2022-07-04T06:04:33;5.03;;;4.53;;
20399;SDS011;10359;53.596;22.520;2022-07-04T06:07:02;4.90;;;4.50;;
20399;SDS011;10359;53.596;22.520;2022-07-04T06:09:31;5.77;;;4.60;;
20399;SDS011;10359;53.596;22.520;2022-07-04T06:12:00;4.83;;;4.43;;
20399;SDS011;10359;53.596;22.520;2022-07-04T06:14:30;5.30;;;4.80;;
20399;SDS011;10359;53.596;22.520;2022-07-04T06:16:58;4.80;;;4.40;;
20399;SDS011;10359;53.596;22.520;2022-07-04T06:19:28;4.47;;;4.17;;
20399;SDS011;10359;53.596;22.520;2022-07-04T06:21:59;5.17;;;4.47;;
20399;SDS011;10359;53.596;22.520;2022-07-04T06:24:28;4.93;;;4.53;;
20399;SDS011;10359;53.596;22.520;2022-07-04T06:26:57;5.57;;;4.17;;
20399;SDS011;10359;53.596;22.520;2022-07-04T06:29:26;4.57;;;4.17;;
20399;SDS011;10359;53.596;22.520;2022-07-04T06:31:55;4.23;;;3.73;;
20399;SDS011;10359;53.596;22.520;2022-07-04T06:34:24;5.70;;;3.83;;
20399;SDS011;10359;53.596;22.520;2022-07-04T06:37:12;4.20;;;3.90;;
20399;SDS011;10359;53.596;22.520;2022-07-04T06:39:41;5.87;;;3.93;;
20399;SDS011;10359;53.596;22.520;2022-07-04T06:42:10;4.00;;;3.60;;
20399;SDS011;10359;53.596;22.520;2022-07-04T06:44:39;4.47;;;4.07;;
20399;SDS011;10359;53.596;22.520;2022-07-04T06:47:08;4.43;;;3.83;;
20399;SDS011;10359;53.596;22.520;2022-07-04T06:49:37;4.00;;;3.70;;
20399;SDS011;10359;53.596;22.520;2022-07-04T06:52:06;5.60;;;4.07;;
20399;SDS011;10359;53.596;22.520;2022-07-04T06:54:37;4.50;;;4.20;;
20399;SDS011;10359;53.596;22.520;2022-07-04T06:57:06;4.30;;;4.00;;
20399;SDS011;10359;53.596;22.520;2022-07-04T06:59:55;4.23;;;3.83;;
20399;SDS011;10359;53.596;22.520;2022-07-04T07:02:24;5.37;;;3.83;;
20399;SDS011;10359;53.596;22.520;2022-07-04T07:04:54;4.37;;;4.07;;
20399;SDS011;10359;53.596;22.520;2022-07-04T07:07:23;5.20;;;4.20;;
20399;SDS011;10359;53.596;22.520;2022-07-04T07:09:55;4.80;;;4.40;;
20399;SDS011;10359;53.596;22.520;2022-07-04T07:12:24;5.80;;;3.80;;
20399;SDS011;10359;53.596;22.520;2022-07-04T07:14:53;3.97;;;3.67;;
20399;SDS011;10359;53.596;22.520;2022-07-04T07:17:23;4.38;;;4.00;;
20399;SDS011;10359;53.596;22.520;2022-07-04T07:19:52;3.85;;;3.55;;
20399;SDS011;10359;53.596;22.520;2022-07-04T07:22:21;4.10;;;3.67;;
20399;SDS011;10359;53.596;22.520;2022-07-04T07:24:50;4.47;;;3.80;;
20399;SDS011;10359;53.596;22.520;2022-07-04T07:27:20;3.97;;;3.60;;
20399;SDS011;10359;53.596;22.520;2022-07-04T07:29:49;4.13;;;3.75;;
20399;SDS011;10359;53.596;22.520;2022-07-04T07:32:18;3.75;;;3.42;;
20399;SDS011;10359;53.596;22.520;2022-07-04T07:34:47;4.00;;;2.90;;
20399;SDS011;10359;53.596;22.520;2022-07-04T07:37:16;3.60;;;3.30;;
20399;SDS011;10359;53.596;22.520;2022-07-04T07:39:47;3.92;;;3.50;;
20399;SDS011;10359;53.596;22.520;2022-07-04T07:42:16;4.75;;;3.35;;
20399;SDS011;10359;53.596;22.520;2022-07-04T07:44:46;3.65;;;3.35;;
20399;SDS011;10359;53.596;22.520;2022-07-04T07:47:15;3.70;;;3.40;;
20399;SDS011;10359;53.596;22.520;2022-07-04T07:49:44;4.03;;;3.35;;
20399;SDS011;10359;53.596;22.520;2022-07-04T07:52:14;3.80;;;3.40;;
20399;SDS011;10359;53.596;22.520;2022-07-04T07:54:44;5.70;;;3.13;;
20399;SDS011;10359;53.596;22.520;2022-07-04T07:57:25;4.03;;;3.40;;
20399;SDS011;10359;53.596;22.520;2022-07-04T07:59:56;3.70;;;3.13;;
20399;SDS011;10359;53.596;22.520;2022-07-04T08:02:25;3.38;;;3.08;;
20399;SDS011;10359;53.596;22.520;2022-07-04T08:05:09;4.93;;;3.20;;
20399;SDS011;10359;53.596;22.520;2022-07-04T08:07:38;3.05;;;2.85;;
20399;SDS011;10359;53.596;22.520;2022-07-04T08:10:07;3.60;;;3.30;;
20399;SDS011;10359;53.596;22.520;2022-07-04T08:12:37;4.40;;;3.05;;
20399;SDS011;10359;53.596;22.520;2022-07-04T08:15:08;4.15;;;3.20;;
20399;SDS011;10359;53.596;22.520;2022-07-04T08:17:37;3.63;;;3.33;;
20399;SDS011;10359;53.596;22.520;2022-07-04T08:20:07;2.88;;;2.67;;
20399;SDS011;10359;53.596;22.520;2022-07-04T08:22:37;4.15;;;2.80;;
20399;SDS011;10359;53.596;22.520;2022-07-04T08:25:06;3.13;;;2.83;;
20399;SDS011;10359;53.596;22.520;2022-07-04T08:27:36;2.70;;;2.50;;
20399;SDS011;10359;53.596;22.520;2022-07-04T08:30:05;3.20;;;2.60;;
20399;SDS011;10359;53.596;22.520;2022-07-04T08:32:36;3.78;;;2.70;;
20399;SDS011;10359;53.596;22.520;2022-07-04T08:35:05;3.22;;;2.92;;
20399;SDS011;10359;53.596;22.520;2022-07-04T08:37:35;3.58;;;3.20;;
20399;SDS011;10359;53.596;22.520;2022-07-04T08:40:04;2.92;;;2.60;;
20399;SDS011;10359;53.596;22.520;2022-07-04T08:42:35;3.85;;;2.78;;
20399;SDS011;10359;53.596;22.520;2022-07-04T08:45:05;2.90;;;2.70;;
20399;SDS011;10359;53.596;22.520;2022-07-04T08:47:37;3.05;;;2.85;;
20399;SDS011;10359;53.596;22.520;2022-07-04T08:50:10;4.07;;;2.47;;
20399;SDS011;10359;53.596;22.520;2022-07-04T08:52:45;4.85;;;2.60;;
20399;SDS011;10359;53.596;22.520;2022-07-04T08:55:21;3.50;;;3.20;;
20399;SDS011;10359;53.596;22.520;2022-07-04T08:58:08;4.65;;;2.60;;
20399;SDS011;10359;53.596;22.520;2022-07-04T09:00:59;2.85;;;2.60;;
20399;SDS011;10359;53.596;22.520;2022-07-04T09:03:29;2.97;;;2.70;;
20399;SDS011;10359;53.596;22.520;2022-07-04T09:05:59;3.92;;;2.50;;
20399;SDS011;10359;53.596;22.520;2022-07-04T09:08:29;2.63;;;2.42;;
20399;SDS011;10359;53.596;22.520;2022-07-04T09:10:58;4.63;;;2.70;;
20399;SDS011;10359;53.596;22.520;2022-07-04T09:13:30;4.10;;;2.60;;
20399;SDS011;10359;53.596;22.520;2022-07-04T09:16:01;3.60;;;2.60;;
20399;SDS011;10359;53.596;22.520;2022-07-04T09:18:30;3.42;;;2.38;;
20399;SDS011;10359;53.596;22.520;2022-07-04T09:21:01;2.90;;;2.30;;
20399;SDS011;10359;53.596;22.520;2022-07-04T09:23:32;3.08;;;2.25;;
20399;SDS011;10359;53.596;22.520;2022-07-04T09:26:06;3.42;;;2.70;;
20399;SDS011;10359;53.596;22.520;2022-07-04T09:28:38;2.92;;;2.38;;
20399;SDS011;10359;53.596;22.520;2022-07-04T09:31:16;2.40;;;2.20;;
20399;SDS011;10359;53.596;22.520;2022-07-04T09:33:48;2.70;;;2.47;;
20399;SDS011;10359;53.596;22.520;2022-07-04T09:36:20;3.13;;;2.42;;
20399;SDS011;10359;53.596;22.520;2022-07-04T09:39:06;2.45;;;2.25;;
20399;SDS011;10359;53.596;22.520;2022-07-04T09:41:52;3.42;;;2.33;;
20399;SDS011;10359;53.596;22.520;2022-07-04T09:44:24;2.22;;;2.00;;
20399;SDS011;10359;53.596;22.520;2022-07-04T09:46:55;2.75;;;1.90;;
20399;SDS011;10359;53.596;22.520;2022-07-04T09:49:24;1.98;;;1.88;;
20399;SDS011;10359;53.596;22.520;2022-07-04T09:51:53;2.40;;;2.20;;
20399;SDS011;10359;53.596;22.520;2022-07-04T09:54:23;1.95;;;1.65;;
20399;SDS011;10359;53.596;22.520;2022-07-04T09:56:55;2.10;;;2.00;;
20399;SDS011;10359;53.596;22.520;2022-07-04T09:59:26;3.47;;;2.00;;
20399;SDS011;10359;53.596;22.520;2022-07-04T10:02:07;2.80;;;2.00;;
20399;SDS011;10359;53.596;22.520;2022-07-04T10:04:41;2.33;;;2.13;;
20399;SDS011;10359;53.596;22.520;2022-07-04T10:07:10;2.17;;;2.00;;
20399;SDS011;10359;53.596;22.520;2022-07-04T10:09:39;2.00;;;1.75;;
20399;SDS011;10359;53.596;22.520;2022-07-04T10:12:09;1.88;;;1.77;;
20399;SDS011;10359;53.596;22.520;2022-07-04T10:14:53;4.40;;;2.30;;
20399;SDS011;10359;53.596;22.520;2022-07-04T10:17:24;2.08;;;1.90;;
20399;SDS011;10359;53.596;22.520;2022-07-04T10:19:53;3.03;;;1.92;;
20399;SDS011;10359;53.596;22.520;2022-07-04T10:22:23;3.08;;;1.90;;
20399;SDS011;10359;53.596;22.520;2022-07-04T10:24:52;2.50;;;2.22;;
20399;SDS011;10359;53.596;22.520;2022-07-04T10:27:21;2.22;;;1.92;;
20399;SDS011;10359;53.596;22.520;2022-07-04T10:29:50;3.40;;;2.40;;
20399;SDS011;10359;53.596;22.520;2022-07-04T10:32:19;2.30;;;2.10;;
20399;SDS011;10359;53.596;22.520;2022-07-04T10:34:50;3.58;;;1.95;;
20399;SDS011;10359;53.596;22.520;2022-07-04T10:37:19;3.53;;;2.00;;
20399;SDS011;10359;53.596;22.520;2022-07-04T10:39:49;2.13;;;1.90;;
20399;SDS011;10359;53.596;22.520;2022-07-04T10:42:22;2.42;;;1.95;;
20399;SDS011;10359;53.596;22.520;2022-07-04T10:44:51;4.03;;;2.22;;
20399;SDS011;10359;53.596;22.520;2022-07-04T10:47:22;2.28;;;1.95;;
20399;SDS011;10359;53.596;22.520;2022-07-04T10:49:56;2.78;;;1.95;;
20399;SDS011;10359;53.596;22.520;2022-07-04T10:52:25;1.85;;;1.75;;
20399;SDS011;10359;53.596;22.520;2022-07-04T10:54:54;2.00;;;1.80;;
20399;SDS011;10359;53.596;22.520;2022-07-04T10:57:27;5.32;;;2.33;;
20399;SDS011;10359;53.596;22.520;2022-07-04T11:00:02;2.20;;;1.98;;
20399;SDS011;10359;53.596;22.520;2022-07-04T11:02:35;2.47;;;2.20;;
20399;SDS011;10359;53.596;22.520;2022-07-04T11:05:08;2.13;;;2.00;;
20399;SDS011;10359;53.596;22.520;2022-07-04T11:10:30;2.20;;;2.00;;
20399;SDS011;10359;53.596;22.520;2022-07-04T11:13:16;2.75;;;2.10;;
20399;SDS011;10359;53.596;22.520;2022-07-04T11:15:58;2.53;;;2.20;;
20399;SDS011;10359;53.596;22.520;2022-07-04T11:18:43;2.70;;;2.50;;
20399;SDS011;10359;53.596;22.520;2022-07-04T11:21:18;2.80;;;2.53;;
20399;SDS011;10359;53.596;22.520;2022-07-04T11:23:52;2.30;;;2.10;;
20399;SDS011;10359;53.596;22.520;2022-07-04T11:26:22;3.53;;;2.58;;
20399;SDS011;10359;53.596;22.520;2022-07-04T11:28:52;2.50;;;2.28;;
20399;SDS011;10359;53.596;22.520;2022-07-04T11:31:34;2.50;;;2.30;;
20399;SDS011;10359;53.596;22.520;2022-07-04T11:34:04;3.97;;;2.30;;
20399;SDS011;10359;53.596;22.520;2022-07-04T11:36:34;2.50;;;2.30;;
20399;SDS011;10359;53.596;22.520;2022-07-04T11:39:03;3.65;;;2.70;;
20399;SDS011;10359;53.596;22.520;2022-07-04T11:41:35;2.63;;;2.42;;
20399;SDS011;10359;53.596;22.520;2022-07-04T11:44:23;2.65;;;2.40;;
20399;SDS011;10359;53.596;22.520;2022-07-04T11:47:11;2.40;;;2.20;;
20399;SDS011;10359;53.596;22.520;2022-07-04T11:49:43;2.47;;;2.28;;
20399;SDS011;10359;53.596;22.520;2022-07-04T11:52:16;3.08;;;2.85;;
20399;SDS011;10359;53.596;22.520;2022-07-04T11:55:02;2.70;;;2.50;;
20399;SDS011;10359;53.596;22.520;2022-07-04T11:57:33;3.30;;;2.28;;
20399;SDS011;10359;53.596;22.520;2022-07-04T12:00:04;2.38;;;2.17;;
20399;SDS011;10359;53.596;22.520;2022-07-04T12:02:42;2.75;;;2.55;;
20399;SDS011;10359;53.596;22.520;2022-07-04T12:05:12;2.78;;;2.58;;
20399;SDS011;10359;53.596;22.520;2022-07-04T12:07:43;5.00;;;2.55;;
20399;SDS011;10359;53.596;22.520;2022-07-04T12:10:34;3.17;;;2.47;;
20399;SDS011;10359;53.596;22.520;2022-07-04T12:13:04;2.95;;;2.55;;
20399;SDS011;10359;53.596;22.520;2022-07-04T12:15:36;3.38;;;2.65;;
20399;SDS011;10359;53.596;22.520;2022-07-04T12:18:14;2.67;;;2.47;;
20399;SDS011;10359;53.596;22.520;2022-07-04T12:20:44;3.28;;;2.42;;
20399;SDS011;10359;53.596;22.520;2022-07-04T12:23:16;2.50;;;2.30;;
20399;SDS011;10359;53.596;22.520;2022-07-04T12:25:47;2.92;;;2.70;;
20399;SDS011;10359;53.596;22.520;2022-07-04T12:28:18;3.03;;;2.75;;
20399;SDS011;10359;53.596;22.520;2022-07-04T12:30:49;4.70;;;2.60;;
20399;SDS011;10359;53.596;22.520;2022-07-04T12:33:19;2.75;;;2.55;;
20399;SDS011;10359;53.596;22.520;2022-07-04T12:35:50;3.90;;;2.70;;
20399;SDS011;10359;53.596;22.520;2022-07-04T12:38:25;4.13;;;2.92;;
20399;SDS011;10359;53.596;22.520;2022-07-04T12:41:02;2.70;;;2.50;;
20399;SDS011;10359;53.596;22.520;2022-07-04T12:43:44;2.72;;;2.53;;
20399;SDS011;10359;53.596;22.520;2022-07-04T12:46:15;2.97;;;2.67;;
20399;SDS011;10359;53.596;22.520;2022-07-04T12:48:57;2.88;;;2.45;;
20399;SDS011;10359;53.596;22.520;2022-07-04T12:51:28;2.67;;;2.58;;
20399;SDS011;10359;53.596;22.520;2022-07-04T12:54:05;2.70;;;2.50;;
20399;SDS011;10359;53.596;22.520;2022-07-04T12:56:36;2.95;;;2.75;;
20399;SDS011;10359;53.596;22.520;2022-07-04T12:59:09;2.70;;;2.50;;
20399;SDS011;10359;53.596;22.520;2022-07-04T13:01:39;2.60;;;2.40;;
20399;SDS011;10359;53.596;22.520;2022-07-04T13:04:09;3.38;;;2.60;;
20399;SDS011;10359;53.596;22.520;2022-07-04T13:06:39;3.10;;;2.75;;
20399;SDS011;10359;53.596;22.520;2022-07-04T13:09:10;2.65;;;2.45;;
20399;SDS011;10359;53.596;22.520;2022-07-04T13:11:39;2.63;;;2.50;;
20399;SDS011;10359;53.596;22.520;2022-07-04T13:14:25;2.63;;;2.42;;
20399;SDS011;10359;53.596;22.520;2022-07-04T13:16:54;3.00;;;2.70;;
20399;SDS011;10359;53.596;22.520;2022-07-04T13:19:23;3.35;;;2.60;;
20399;SDS011;10359;53.596;22.520;2022-07-04T13:21:53;5.93;;;2.67;;
20399;SDS011;10359;53.596;22.520;2022-07-04T13:24:24;2.60;;;2.40;;
20399;SDS011;10359;53.596;22.520;2022-07-04T13:26:52;3.95;;;2.58;;
20399;SDS011;10359;53.596;22.520;2022-07-04T13:29:21;5.00;;;2.70;;
20399;SDS011;10359;53.596;22.520;2022-07-04T13:31:50;2.85;;;2.40;;
20399;SDS011;10359;53.596;22.520;2022-07-04T13:34:19;3.38;;;2.85;;
20399;SDS011;10359;53.596;22.520;2022-07-04T13:36:48;4.53;;;2.70;;
20399;SDS011;10359;53.596;22.520;2022-07-04T13:39:21;3.30;;;3.00;;
20399;SDS011;10359;53.596;22.520;2022-07-04T13:42:12;3.33;;;3.03;;
20399;SDS011;10359;53.596;22.520;2022-07-04T13:45:01;2.70;;;2.50;;
20399;SDS011;10359;53.596;22.520;2022-07-04T13:47:31;4.88;;;3.10;;
20399;SDS011;10359;53.596;22.520;2022-07-04T13:50:00;3.08;;;2.88;;
20399;SDS011;10359;53.596;22.520;2022-07-04T13:52:28;3.40;;;3.05;;
20399;SDS011;10359;53.596;22.520;2022-07-04T13:54:59;2.85;;;2.65;;
20399;SDS011;10359;53.596;22.520;2022-07-04T13:57:28;3.10;;;2.80;;
20399;SDS011;10359;53.596;22.520;2022-07-04T13:59:57;4.03;;;2.60;;
20399;SDS011;10359;53.596;22.520;2022-07-04T14:02:26;3.05;;;2.75;;
20399;SDS011;10359;53.596;22.520;2022-07-04T14:04:55;3.88;;;2.70;;
20399;SDS011;10359;53.596;22.520;2022-07-04T14:07:24;3.50;;;2.55;;
20399;SDS011;10359;53.596;22.520;2022-07-04T14:09:53;3.30;;;2.60;;
20399;SDS011;10359;53.596;22.520;2022-07-04T14:12:24;3.20;;;2.47;;
20399;SDS011;10359;53.596;22.520;2022-07-04T14:14:53;5.72;;;2.25;;
20399;SDS011;10359;53.596;22.520;2022-07-04T14:17:22;3.10;;;2.50;;
20399;SDS011;10359;53.596;22.520;2022-07-04T14:20:01;3.15;;;2.70;;
20399;SDS011;10359;53.596;22.520;2022-07-04T14:22:31;4.43;;;2.20;;
20399;SDS011;10359;53.596;22.520;2022-07-04T14:25:01;2.60;;;2.40;;
20399;SDS011;10359;53.596;22.520;2022-07-04T14:27:31;2.78;;;2.47;;
20399;SDS011;10359;53.596;22.520;2022-07-04T14:30:01;4.30;;;2.20;;
20399;SDS011;10359;53.596;22.520;2022-07-04T14:32:30;2.67;;;2.20;;
20399;SDS011;10359;53.596;22.520;2022-07-04T14:34:59;2.53;;;2.33;;
20399;SDS011;10359;53.596;22.520;2022-07-04T14:37:28;4.82;;;2.35;;
20399;SDS011;10359;53.596;22.520;2022-07-04T14:39:57;6.07;;;2.30;;
20399;SDS011;10359;53.596;22.520;2022-07-04T14:42:26;2.08;;;1.90;;
20399;SDS011;10359;53.596;22.520;2022-07-04T14:44:57;3.40;;;2.40;;
20399;SDS011;10359;53.596;22.520;2022-07-04T14:47:26;2.40;;;2.10;;
20399;SDS011;10359;53.596;22.520;2022-07-04T14:49:58;5.00;;;2.15;;
20399;SDS011;10359;53.596;22.520;2022-07-04T14:52:28;2.45;;;2.22;;
20399;SDS011;10359;53.596;22.520;2022-07-04T14:54:57;2.17;;;2.03;;
20399;SDS011;10359;53.596;22.520;2022-07-04T14:57:26;2.60;;;2.40;;
20399;SDS011;10359;53.596;22.520;2022-07-04T14:59:55;2.47;;;2.28;;